createdAt,value
2018-11-03T00:03:33.832Z,8.80
2018-11-03T00:08:38.857Z,7.50
2018-11-03T00:14:00.284Z,9.17
2018-11-03T00:19:05.846Z,6.47
2018-11-03T00:24:11.108Z,11.17
2018-11-03T00:29:21.162Z,7.47
2018-11-03T00:34:26.411Z,12.27
2018-11-03T00:39:33.798Z,10.00
2018-11-03T00:44:39.328Z,12.20
2018-11-03T00:49:44.575Z,13.20
2018-11-03T00:54:50.115Z,11.53
2018-11-03T01:00:00.191Z,15.87
2018-11-03T01:05:11.579Z,12.83
2018-11-03T01:10:18.981Z,12.90
2018-11-03T01:15:33.953Z,16.03
2018-11-03T01:20:40.605Z,14.03
2018-11-03T01:25:49.797Z,14.00
2018-11-03T01:30:55.982Z,12.70
2018-11-03T01:36:07.512Z,15.40
2018-11-03T01:41:13.264Z,17.13
2018-11-03T01:46:21.393Z,14.23
2018-11-03T01:51:31.666Z,14.50
2018-11-03T01:56:36.709Z,13.80
2018-11-03T02:01:41.670Z,15.10
2018-11-03T02:06:46.536Z,11.40
2018-11-03T02:11:51.486Z,11.33
2018-11-03T02:16:56.593Z,12.53
2018-11-03T02:22:01.573Z,12.20
2018-11-03T02:27:06.560Z,10.93
2018-11-03T02:32:11.525Z,10.40
2018-11-03T02:37:16.507Z,10.83
2018-11-03T02:42:21.346Z,13.30
2018-11-03T02:47:26.304Z,13.60
2018-11-03T02:52:31.149Z,14.17
2018-11-03T02:57:36.169Z,12.10
2018-11-03T03:02:41.272Z,12.13
2018-11-03T03:07:46.387Z,14.83
2018-11-03T03:12:51.385Z,13.83
2018-11-03T03:17:56.237Z,16.00
2018-11-03T03:23:01.131Z,14.67
2018-11-03T03:28:06.667Z,14.87
2018-11-03T03:33:11.901Z,13.43
2018-11-03T03:38:17.017Z,13.73
2018-11-03T03:43:21.958Z,13.20
2018-11-03T03:48:27.020Z,12.97
2018-11-03T03:53:31.938Z,12.23
2018-11-03T03:58:36.864Z,11.80
2018-11-03T04:03:42.194Z,13.03
2018-11-03T04:08:47.236Z,11.33
2018-11-03T04:13:52.149Z,11.30
2018-11-03T04:18:57.076Z,11.03
2018-11-03T04:24:02.207Z,11.63
2018-11-03T04:29:07.265Z,12.13
2018-11-03T04:34:12.380Z,11.33
2018-11-03T04:39:17.374Z,12.23
2018-11-03T04:44:22.487Z,11.30
2018-11-03T04:49:27.516Z,10.50
2018-11-03T04:54:32.517Z,10.07
2018-11-03T04:59:37.406Z,14.37
2018-11-03T05:04:42.661Z,9.90
2018-11-03T05:09:47.597Z,10.83
2018-11-03T05:14:52.470Z,7.70
2018-11-03T05:19:57.433Z,8.90
2018-11-03T05:25:02.362Z,8.43
2018-11-03T05:30:07.860Z,7.97
2018-11-03T05:35:13.039Z,10.40
2018-11-03T05:40:17.977Z,8.30
2018-11-03T05:45:22.860Z,8.17
2018-11-03T05:50:27.748Z,7.23
2018-11-03T05:55:32.726Z,8.80
2018-11-03T06:00:37.693Z,10.73
2018-11-03T06:05:42.703Z,10.27
2018-11-03T06:10:53.945Z,10.37
2018-11-03T06:15:59.020Z,15.07
2018-11-03T06:21:04.018Z,9.40
2018-11-03T06:26:09.176Z,8.60
2018-11-03T06:31:14.057Z,11.37
2018-11-03T06:36:19.044Z,11.67
2018-11-03T06:41:24.160Z,12.37
2018-11-03T06:46:29.205Z,7.57
2018-11-03T06:51:34.112Z,10.20
2018-11-03T06:56:39.082Z,11.03
2018-11-03T07:01:44.017Z,7.07
2018-11-03T07:06:49.025Z,8.57
2018-11-03T07:11:53.924Z,7.23
2018-11-03T07:16:59.094Z,9.10
2018-11-03T07:22:04.078Z,7.77
2018-11-03T07:27:08.970Z,8.53
2018-11-03T07:32:13.937Z,13.57
2018-11-03T07:37:19.063Z,8.00
2018-11-03T07:42:24.338Z,10.73
2018-11-03T07:47:29.309Z,8.23
2018-11-03T07:52:34.244Z,7.63
2018-11-03T07:57:39.266Z,6.87
2018-11-03T08:02:44.224Z,4.67
2018-11-03T08:07:49.184Z,8.27
2018-11-03T08:12:54.242Z,7.27
2018-11-03T08:17:59.276Z,11.13
2018-11-03T08:23:04.164Z,6.87
2018-11-03T08:28:09.179Z,7.63
2018-11-03T08:33:14.226Z,16.07
2018-11-03T08:38:19.105Z,5.33
2018-11-03T08:43:24.099Z,6.37
2018-11-03T08:48:29.035Z,12.83
2018-11-03T08:53:34.123Z,5.67
2018-11-03T08:58:39.080Z,7.03
2018-11-03T09:03:43.956Z,6.00
2018-11-03T09:08:48.991Z,5.43
2018-11-03T09:13:53.960Z,5.37
2018-11-03T09:18:59.390Z,4.70
2018-11-03T09:24:04.340Z,4.47
2018-11-03T09:29:09.342Z,7.47
2018-11-03T09:34:14.287Z,8.97
2018-11-03T09:39:19.412Z,5.67
2018-11-03T09:44:24.247Z,4.53
2018-11-03T09:49:29.159Z,6.57
2018-11-03T09:54:34.123Z,4.60
2018-11-03T09:59:39.158Z,5.57
2018-11-03T10:04:44.128Z,4.77
2018-11-03T10:09:49.145Z,6.27
2018-11-03T10:14:54.046Z,4.90
2018-11-03T10:19:58.956Z,6.27
2018-11-03T10:25:04.046Z,5.83
2018-11-03T10:30:10.304Z,4.47
2018-11-03T10:35:15.631Z,5.47
2018-11-03T10:40:20.753Z,3.97
2018-11-03T10:45:25.854Z,5.10
2018-11-03T10:50:30.755Z,7.40
2018-11-03T10:55:35.631Z,6.03
2018-11-03T11:00:45.625Z,6.03
2018-11-03T11:05:57.394Z,5.93
2018-11-03T11:11:07.624Z,4.50
2018-11-03T11:16:12.756Z,6.40
2018-11-03T11:21:17.779Z,4.67
2018-11-03T11:26:23.486Z,3.33
2018-11-03T11:31:28.411Z,5.57
2018-11-03T11:36:33.387Z,6.83
2018-11-03T11:41:38.417Z,5.30
2018-11-03T11:46:43.492Z,11.30
2018-11-03T11:51:48.466Z,4.40
2018-11-03T11:56:53.397Z,6.93
2018-11-03T12:01:58.386Z,9.63
2018-11-03T12:07:03.426Z,8.13
2018-11-03T12:12:08.384Z,5.87
2018-11-03T12:17:13.396Z,8.20
2018-11-03T12:22:18.385Z,5.23
2018-11-03T12:27:23.387Z,9.70
2018-11-03T12:32:28.762Z,19.20
2018-11-03T12:37:33.768Z,5.60
2018-11-03T12:42:38.778Z,12.17
2018-11-03T12:47:43.735Z,6.70
2018-11-03T12:52:48.759Z,8.67
2018-11-03T12:57:53.811Z,11.17
2018-11-03T13:02:58.750Z,6.17
2018-11-03T13:08:03.765Z,4.83
2018-11-03T13:13:08.924Z,8.30
2018-11-03T13:18:15.285Z,8.03
2018-11-03T13:23:20.941Z,5.20
2018-11-03T13:28:25.947Z,6.60
2018-11-03T13:33:30.889Z,7.00
2018-11-03T13:38:35.792Z,5.57
2018-11-03T13:43:40.699Z,3.73
2018-11-03T13:48:45.675Z,4.10
2018-11-03T13:53:50.824Z,4.30
2018-11-03T13:58:56.012Z,7.83
2018-11-03T14:04:01.768Z,4.07
2018-11-03T14:09:08.370Z,3.23
2018-11-03T14:14:13.366Z,4.30
2018-11-03T14:19:18.503Z,8.67
2018-11-03T14:24:23.450Z,6.63
2018-11-03T14:29:28.509Z,4.90
2018-11-03T14:34:33.990Z,5.47
2018-11-03T14:39:39.092Z,11.80
2018-11-03T14:44:44.271Z,8.83
2018-11-03T14:49:49.479Z,6.70
2018-11-03T14:54:54.348Z,5.90
2018-11-03T14:59:59.392Z,6.80
2018-11-03T15:05:04.480Z,7.30
2018-11-03T15:10:10.800Z,8.17
2018-11-03T15:15:19.378Z,18.80
2018-11-03T15:20:24.382Z,15.30
2018-11-03T15:25:29.299Z,20.60
2018-11-03T15:30:34.405Z,8.27
2018-11-03T15:35:39.273Z,10.43
2018-11-03T15:40:44.217Z,12.97
2018-11-03T15:45:49.430Z,11.57
2018-11-03T15:50:54.479Z,10.67
2018-11-03T15:55:59.449Z,11.80
2018-11-03T16:01:04.521Z,11.10
2018-11-03T16:06:09.537Z,13.77
2018-11-03T16:11:14.612Z,9.77
2018-11-03T16:16:19.839Z,13.20
2018-11-03T16:21:24.812Z,15.50
2018-11-03T16:26:29.961Z,17.63
2018-11-03T16:31:35.115Z,16.73
2018-11-03T16:36:40.193Z,24.27
2018-11-03T16:41:45.156Z,24.90
2018-11-03T16:46:50.564Z,15.67
2018-11-03T16:51:55.710Z,12.97
2018-11-03T16:57:00.649Z,15.77
2018-11-03T17:02:06.013Z,34.13
2018-11-03T17:07:10.891Z,21.73
2018-11-03T17:12:16.063Z,19.50
2018-11-03T17:17:21.003Z,20.40
2018-11-03T17:22:26.016Z,19.57
2018-11-03T17:27:31.105Z,19.77
2018-11-03T17:32:36.056Z,19.73
2018-11-03T17:37:41.236Z,20.67
2018-11-03T17:42:46.326Z,12.77
2018-11-03T17:47:51.324Z,17.37
2018-11-03T17:52:56.374Z,22.60
2018-11-03T17:58:01.407Z,26.53
2018-11-03T18:03:06.823Z,14.93
2018-11-03T18:08:11.707Z,19.93
2018-11-03T18:13:16.908Z,21.50
2018-11-03T18:18:21.815Z,30.83
2018-11-03T18:23:26.768Z,14.90
2018-11-03T18:28:31.757Z,13.77
2018-11-03T18:33:36.677Z,16.97
2018-11-03T18:38:41.648Z,10.77
2018-11-03T18:43:46.707Z,11.00
2018-11-03T18:48:51.657Z,13.10
2018-11-03T18:53:56.691Z,14.63
2018-11-03T18:59:01.905Z,14.73
2018-11-03T19:04:07.792Z,16.00
2018-11-03T19:09:13.231Z,10.50
2018-11-03T19:14:18.433Z,14.40
2018-11-03T19:19:24.757Z,15.47
2018-11-03T19:24:30.688Z,15.47
2018-11-03T19:29:37.329Z,14.77
2018-11-03T19:34:42.353Z,16.47
2018-11-03T19:39:47.534Z,15.10
2018-11-03T19:44:52.532Z,12.63
2018-11-03T19:49:58.501Z,9.23
2018-11-03T19:55:03.623Z,15.83
2018-11-03T20:00:11.527Z,10.20
2018-11-03T20:05:17.326Z,15.50
2018-11-03T20:10:22.920Z,9.10
2018-11-03T20:15:27.830Z,9.37
2018-11-03T20:20:32.889Z,10.53
2018-11-03T20:25:39.026Z,16.03
2018-11-03T20:30:44.008Z,11.77
2018-11-03T20:35:48.946Z,9.80
2018-11-03T20:40:53.781Z,9.43
2018-11-03T20:45:59.529Z,10.23
2018-11-03T20:51:11.116Z,10.37
2018-11-03T20:56:16.161Z,15.67
2018-11-03T21:01:21.104Z,9.80
2018-11-03T21:06:26.073Z,8.97
2018-11-03T21:11:31.317Z,6.77
2018-11-03T21:16:36.291Z,11.10
2018-11-03T21:21:41.663Z,5.27
2018-11-03T21:26:46.736Z,5.73
2018-11-03T21:31:51.690Z,8.83
2018-11-03T21:36:57.441Z,13.47
2018-11-03T21:42:02.534Z,10.00
2018-11-03T21:47:07.533Z,10.23
2018-11-03T21:52:12.519Z,7.17
2018-11-03T21:57:17.550Z,9.67
2018-11-03T22:02:22.645Z,10.97
2018-11-03T22:07:27.606Z,7.77
2018-11-03T22:12:32.619Z,5.70
2018-11-03T22:17:37.778Z,6.57
2018-11-03T22:22:42.969Z,12.70
2018-11-03T22:27:48.082Z,8.40
2018-11-03T22:32:53.545Z,6.80
2018-11-03T22:37:58.442Z,9.20
2018-11-03T22:43:03.668Z,6.37
2018-11-03T22:48:08.559Z,7.07
2018-11-03T22:53:16.532Z,7.67
2018-11-03T22:58:21.471Z,6.73
2018-11-03T23:03:27.094Z,6.50
2018-11-03T23:08:36.960Z,6.30
2018-11-03T23:13:42.052Z,6.97
2018-11-03T23:18:46.996Z,6.67
2018-11-03T23:23:51.974Z,7.83
2018-11-03T23:28:56.882Z,7.37
2018-11-03T23:34:01.824Z,8.00
2018-11-03T23:39:09.381Z,10.73
2018-11-03T23:44:14.441Z,9.83
2018-11-03T23:49:19.419Z,7.40
2018-11-03T23:54:30.719Z,7.17
2018-11-03T23:59:35.805Z,8.03
